sensor_id;sensor_type;location;lat;lon;timestamp;P1;durP1;ratioP1;P2;durP2;ratioP2
215;SDS011;70668;48.81286795;9.14184224;2023-08-24T00:00:58;18.57;;;10.67;;
215;SDS011;70668;48.81286795;9.14184224;2023-08-24T00:03:26;16.40;;;10.43;;
215;SDS011;70668;48.81286795;9.14184224;2023-08-24T00:05:55;14.43;;;9.80;;
215;SDS011;70668;48.81286795;9.14184224;2023-08-24T00:08:23;14.00;;;10.43;;
215;SDS011;70668;48.81286795;9.14184224;2023-08-24T00:10:52;13.57;;;10.07;;
215;SDS011;70668;48.81286795;9.14184224;2023-08-24T00:13:23;16.63;;;10.70;;
215;SDS011;70668;48.81286795;9.14184224;2023-08-24T00:15:51;20.80;;;11.70;;
215;SDS011;70668;48.81286795;9.14184224;2023-08-24T00:18:21;16.53;;;10.90;;
215;SDS011;70668;48.81286795;9.14184224;2023-08-24T00:20:49;18.03;;;10.93;;
215;SDS011;70668;48.81286795;9.14184224;2023-08-24T00:23:18;16.10;;;10.83;;
215;SDS011;70668;48.81286795;9.14184224;2023-08-24T00:25:46;14.60;;;10.73;;
215;SDS011;70668;48.81286795;9.14184224;2023-08-24T00:28:15;14.50;;;10.77;;
215;SDS011;70668;48.81286795;9.14184224;2023-08-24T00:30:46;15.40;;;10.20;;
215;SDS011;70668;48.81286795;9.14184224;2023-08-24T00:33:14;15.17;;;11.00;;
215;SDS011;70668;48.81286795;9.14184224;2023-08-24T00:35:42;17.43;;;11.10;;
215;SDS011;70668;48.81286795;9.14184224;2023-08-24T00:38:11;17.70;;;11.77;;
215;SDS011;70668;48.81286795;9.14184224;2023-08-24T00:40:40;19.40;;;12.20;;
215;SDS011;70668;48.81286795;9.14184224;2023-08-24T00:43:09;16.77;;;11.53;;
215;SDS011;70668;48.81286795;9.14184224;2023-08-24T00:45:38;16.70;;;12.23;;
215;SDS011;70668;48.81286795;9.14184224;2023-08-24T00:48:09;18.13;;;12.23;;
215;SDS011;70668;48.81286795;9.14184224;2023-08-24T00:50:37;14.97;;;11.20;;
215;SDS011;70668;48.81286795;9.14184224;2023-08-24T00:53:06;15.47;;;11.40;;
215;SDS011;70668;48.81286795;9.14184224;2023-08-24T00:55:34;20.33;;;11.60;;
215;SDS011;70668;48.81286795;9.14184224;2023-08-24T00:58:03;16.90;;;11.03;;
215;SDS011;70668;48.81286795;9.14184224;2023-08-24T01:00:32;14.27;;;11.53;;
215;SDS011;70668;48.81286795;9.14184224;2023-08-24T01:03:00;16.87;;;12.07;;
215;SDS011;70668;48.81286795;9.14184224;2023-08-24T01:05:31;17.53;;;12.30;;
215;SDS011;70668;48.81286795;9.14184224;2023-08-24T01:08:00;17.03;;;11.53;;
215;SDS011;70668;48.81286795;9.14184224;2023-08-24T01:10:30;14.50;;;11.50;;
215;SDS011;70668;48.81286795;9.14184224;2023-08-24T01:13:03;16.33;;;11.10;;
215;SDS011;70668;48.81286795;9.14184224;2023-08-24T01:15:37;16.53;;;11.13;;
215;SDS011;70668;48.81286795;9.14184224;2023-08-24T01:18:08;17.07;;;12.37;;
215;SDS011;70668;48.81286795;9.14184224;2023-08-24T01:20:42;16.97;;;12.13;;
215;SDS011;70668;48.81286795;9.14184224;2023-08-24T01:23:15;16.33;;;11.83;;
215;SDS011;70668;48.81286795;9.14184224;2023-08-24T01:25:51;17.40;;;11.20;;
215;SDS011;70668;48.81286795;9.14184224;2023-08-24T01:28:23;17.53;;;12.57;;
215;SDS011;70668;48.81286795;9.14184224;2023-08-24T01:30:52;16.30;;;11.60;;
215;SDS011;70668;48.81286795;9.14184224;2023-08-24T01:33:21;16.77;;;12.53;;
215;SDS011;70668;48.81286795;9.14184224;2023-08-24T01:35:52;18.10;;;12.00;;
215;SDS011;70668;48.81286795;9.14184224;2023-08-24T01:38:21;17.83;;;11.43;;
215;SDS011;70668;48.81286795;9.14184224;2023-08-24T01:40:53;18.13;;;12.00;;
215;SDS011;70668;48.81286795;9.14184224;2023-08-24T01:43:29;17.90;;;12.43;;
215;SDS011;70668;48.81286795;9.14184224;2023-08-24T01:45:59;18.57;;;11.80;;
215;SDS011;70668;48.81286795;9.14184224;2023-08-24T01:48:30;15.00;;;11.83;;
215;SDS011;70668;48.81286795;9.14184224;2023-08-24T01:50:59;17.30;;;12.50;;
215;SDS011;70668;48.81286795;9.14184224;2023-08-24T01:53:29;22.83;;;12.80;;
215;SDS011;70668;48.81286795;9.14184224;2023-08-24T01:55:59;16.27;;;12.30;;
215;SDS011;70668;48.81286795;9.14184224;2023-08-24T01:58:30;19.63;;;12.10;;
215;SDS011;70668;48.81286795;9.14184224;2023-08-24T02:00:58;18.20;;;12.83;;
215;SDS011;70668;48.81286795;9.14184224;2023-08-24T02:03:26;20.53;;;11.87;;
215;SDS011;70668;48.81286795;9.14184224;2023-08-24T02:05:55;18.27;;;12.73;;
215;SDS011;70668;48.81286795;9.14184224;2023-08-24T02:08:24;14.60;;;11.50;;
215;SDS011;70668;48.81286795;9.14184224;2023-08-24T02:10:52;19.93;;;11.80;;
215;SDS011;70668;48.81286795;9.14184224;2023-08-24T02:13:21;18.23;;;12.00;;
215;SDS011;70668;48.81286795;9.14184224;2023-08-24T02:15:52;18.00;;;12.20;;
215;SDS011;70668;48.81286795;9.14184224;2023-08-24T02:18:29;17.20;;;11.17;;
215;SDS011;70668;48.81286795;9.14184224;2023-08-24T02:20:57;16.30;;;11.53;;
215;SDS011;70668;48.81286795;9.14184224;2023-08-24T02:23:26;15.67;;;11.10;;
215;SDS011;70668;48.81286795;9.14184224;2023-08-24T02:25:55;21.53;;;11.47;;
215;SDS011;70668;48.81286795;9.14184224;2023-08-24T02:28:25;15.37;;;11.57;;
215;SDS011;70668;48.81286795;9.14184224;2023-08-24T02:30:59;16.03;;;11.83;;
215;SDS011;70668;48.81286795;9.14184224;2023-08-24T02:33:28;16.83;;;12.03;;
215;SDS011;70668;48.81286795;9.14184224;2023-08-24T02:35:57;19.53;;;11.63;;
215;SDS011;70668;48.81286795;9.14184224;2023-08-24T02:38:25;16.50;;;12.03;;
215;SDS011;70668;48.81286795;9.14184224;2023-08-24T02:41:00;16.40;;;12.10;;
215;SDS011;70668;48.81286795;9.14184224;2023-08-24T02:43:29;18.37;;;12.30;;
215;SDS011;70668;48.81286795;9.14184224;2023-08-24T02:46:04;20.93;;;13.30;;
215;SDS011;70668;48.81286795;9.14184224;2023-08-24T02:48:33;16.83;;;12.07;;
215;SDS011;70668;48.81286795;9.14184224;2023-08-24T02:51:02;16.77;;;12.07;;
215;SDS011;70668;48.81286795;9.14184224;2023-08-24T02:53:31;17.43;;;12.50;;
215;SDS011;70668;48.81286795;9.14184224;2023-08-24T02:56:00;15.50;;;11.40;;
215;SDS011;70668;48.81286795;9.14184224;2023-08-24T02:58:29;16.67;;;11.87;;
215;SDS011;70668;48.81286795;9.14184224;2023-08-24T03:00:58;15.37;;;12.07;;
215;SDS011;70668;48.81286795;9.14184224;2023-08-24T03:03:29;15.37;;;11.60;;
215;SDS011;70668;48.81286795;9.14184224;2023-08-24T03:05:58;15.97;;;11.60;;
215;SDS011;70668;48.81286795;9.14184224;2023-08-24T03:08:28;15.80;;;11.97;;
215;SDS011;70668;48.81286795;9.14184224;2023-08-24T03:10:57;18.43;;;11.30;;
215;SDS011;70668;48.81286795;9.14184224;2023-08-24T03:13:26;18.77;;;11.97;;
215;SDS011;70668;48.81286795;9.14184224;2023-08-24T03:15:55;17.80;;;11.90;;
215;SDS011;70668;48.81286795;9.14184224;2023-08-24T03:18:30;20.20;;;11.70;;
215;SDS011;70668;48.81286795;9.14184224;2023-08-24T03:20:58;18.20;;;11.70;;
215;SDS011;70668;48.81286795;9.14184224;2023-08-24T03:23:27;16.43;;;11.80;;
215;SDS011;70668;48.81286795;9.14184224;2023-08-24T03:25:55;18.30;;;11.90;;
215;SDS011;70668;48.81286795;9.14184224;2023-08-24T03:28:24;18.37;;;11.87;;
215;SDS011;70668;48.81286795;9.14184224;2023-08-24T03:30:53;16.17;;;12.33;;
215;SDS011;70668;48.81286795;9.14184224;2023-08-24T03:33:22;21.30;;;11.90;;
215;SDS011;70668;48.81286795;9.14184224;2023-08-24T03:35:54;17.60;;;12.67;;
215;SDS011;70668;48.81286795;9.14184224;2023-08-24T03:38:22;18.63;;;12.63;;
215;SDS011;70668;48.81286795;9.14184224;2023-08-24T03:40:52;16.67;;;11.67;;
215;SDS011;70668;48.81286795;9.14184224;2023-08-24T03:43:20;15.63;;;12.00;;
215;SDS011;70668;48.81286795;9.14184224;2023-08-24T03:45:48;15.00;;;11.57;;
215;SDS011;70668;48.81286795;9.14184224;2023-08-24T03:48:17;17.43;;;12.07;;
215;SDS011;70668;48.81286795;9.14184224;2023-08-24T03:50:46;15.67;;;12.17;;
215;SDS011;70668;48.81286795;9.14184224;2023-08-24T03:53:17;19.37;;;12.47;;
215;SDS011;70668;48.81286795;9.14184224;2023-08-24T03:55:46;16.80;;;12.20;;
215;SDS011;70668;48.81286795;9.14184224;2023-08-24T03:58:17;18.87;;;13.47;;
215;SDS011;70668;48.81286795;9.14184224;2023-08-24T04:00:46;16.87;;;12.40;;
215;SDS011;70668;48.81286795;9.14184224;2023-08-24T04:03:15;18.27;;;12.90;;
215;SDS011;70668;48.81286795;9.14184224;2023-08-24T04:05:44;19.10;;;12.43;;
215;SDS011;70668;48.81286795;9.14184224;2023-08-24T04:08:12;19.50;;;13.07;;
215;SDS011;70668;48.81286795;9.14184224;2023-08-24T04:10:43;18.20;;;13.27;;
215;SDS011;70668;48.81286795;9.14184224;2023-08-24T04:13:11;21.40;;;13.00;;
215;SDS011;70668;48.81286795;9.14184224;2023-08-24T04:15:40;17.80;;;12.93;;
215;SDS011;70668;48.81286795;9.14184224;2023-08-24T04:18:08;15.70;;;11.60;;
215;SDS011;70668;48.81286795;9.14184224;2023-08-24T04:20:37;16.43;;;12.60;;
215;SDS011;70668;48.81286795;9.14184224;2023-08-24T04:23:05;17.60;;;12.60;;
215;SDS011;70668;48.81286795;9.14184224;2023-08-24T04:25:38;16.80;;;12.50;;
215;SDS011;70668;48.81286795;9.14184224;2023-08-24T04:28:11;18.00;;;12.70;;
215;SDS011;70668;48.81286795;9.14184224;2023-08-24T04:30:40;17.80;;;12.70;;
215;SDS011;70668;48.81286795;9.14184224;2023-08-24T04:33:08;17.87;;;13.20;;
215;SDS011;70668;48.81286795;9.14184224;2023-08-24T04:35:36;16.40;;;12.60;;
215;SDS011;70668;48.81286795;9.14184224;2023-08-24T04:38:05;17.53;;;14.03;;
215;SDS011;70668;48.81286795;9.14184224;2023-08-24T04:40:44;19.17;;;13.00;;
215;SDS011;70668;48.81286795;9.14184224;2023-08-24T04:43:16;17.27;;;12.10;;
215;SDS011;70668;48.81286795;9.14184224;2023-08-24T04:45:46;19.83;;;12.70;;
215;SDS011;70668;48.81286795;9.14184224;2023-08-24T04:48:17;22.83;;;14.53;;
215;SDS011;70668;48.81286795;9.14184224;2023-08-24T04:50:46;18.17;;;13.10;;
215;SDS011;70668;48.81286795;9.14184224;2023-08-24T04:53:16;20.63;;;14.13;;
215;SDS011;70668;48.81286795;9.14184224;2023-08-24T04:55:45;17.47;;;13.63;;
215;SDS011;70668;48.81286795;9.14184224;2023-08-24T04:58:17;19.43;;;14.23;;
215;SDS011;70668;48.81286795;9.14184224;2023-08-24T05:00:45;22.70;;;15.40;;
215;SDS011;70668;48.81286795;9.14184224;2023-08-24T05:03:14;24.27;;;15.30;;
215;SDS011;70668;48.81286795;9.14184224;2023-08-24T05:05:44;18.73;;;14.70;;
215;SDS011;70668;48.81286795;9.14184224;2023-08-24T05:08:12;23.13;;;15.03;;
215;SDS011;70668;48.81286795;9.14184224;2023-08-24T05:10:41;22.20;;;15.93;;
215;SDS011;70668;48.81286795;9.14184224;2023-08-24T05:13:09;22.57;;;15.30;;
215;SDS011;70668;48.81286795;9.14184224;2023-08-24T05:15:40;20.80;;;14.90;;
215;SDS011;70668;48.81286795;9.14184224;2023-08-24T05:18:09;20.23;;;14.50;;
215;SDS011;70668;48.81286795;9.14184224;2023-08-24T05:20:37;27.33;;;15.13;;
215;SDS011;70668;48.81286795;9.14184224;2023-08-24T05:23:05;23.40;;;15.40;;
215;SDS011;70668;48.81286795;9.14184224;2023-08-24T05:25:34;25.07;;;14.47;;
215;SDS011;70668;48.81286795;9.14184224;2023-08-24T05:28:02;22.40;;;13.97;;
215;SDS011;70668;48.81286795;9.14184224;2023-08-24T05:30:31;22.33;;;14.97;;
215;SDS011;70668;48.81286795;9.14184224;2023-08-24T05:33:03;21.23;;;14.23;;
215;SDS011;70668;48.81286795;9.14184224;2023-08-24T05:35:32;28.97;;;14.67;;
215;SDS011;70668;48.81286795;9.14184224;2023-08-24T05:38:00;28.07;;;14.80;;
215;SDS011;70668;48.81286795;9.14184224;2023-08-24T05:40:29;21.33;;;13.60;;
215;SDS011;70668;48.81286795;9.14184224;2023-08-24T05:42:57;19.30;;;13.67;;
215;SDS011;70668;48.81286795;9.14184224;2023-08-24T05:45:26;20.40;;;13.53;;
215;SDS011;70668;48.81286795;9.14184224;2023-08-24T05:47:54;22.17;;;13.93;;
215;SDS011;70668;48.81286795;9.14184224;2023-08-24T05:50:25;23.87;;;14.80;;
215;SDS011;70668;48.81286795;9.14184224;2023-08-24T05:52:53;20.20;;;14.00;;
215;SDS011;70668;48.81286795;9.14184224;2023-08-24T05:55:22;24.60;;;15.20;;
215;SDS011;70668;48.81286795;9.14184224;2023-08-24T05:57:50;25.33;;;15.70;;
215;SDS011;70668;48.81286795;9.14184224;2023-08-24T06:00:19;27.33;;;15.97;;
215;SDS011;70668;48.81286795;9.14184224;2023-08-24T06:02:48;32.47;;;17.10;;
215;SDS011;70668;48.81286795;9.14184224;2023-08-24T06:05:16;23.43;;;16.30;;
215;SDS011;70668;48.81286795;9.14184224;2023-08-24T06:07:48;24.50;;;16.60;;
215;SDS011;70668;48.81286795;9.14184224;2023-08-24T06:10:16;26.00;;;15.63;;
215;SDS011;70668;48.81286795;9.14184224;2023-08-24T06:12:45;20.73;;;14.67;;
215;SDS011;70668;48.81286795;9.14184224;2023-08-24T06:15:13;24.23;;;14.70;;
215;SDS011;70668;48.81286795;9.14184224;2023-08-24T06:17:41;21.40;;;14.83;;
215;SDS011;70668;48.81286795;9.14184224;2023-08-24T06:20:13;24.83;;;15.20;;
215;SDS011;70668;48.81286795;9.14184224;2023-08-24T06:22:41;23.27;;;14.40;;
215;SDS011;70668;48.81286795;9.14184224;2023-08-24T06:25:12;22.20;;;14.40;;
215;SDS011;70668;48.81286795;9.14184224;2023-08-24T06:27:41;24.00;;;14.90;;
215;SDS011;70668;48.81286795;9.14184224;2023-08-24T06:30:09;18.23;;;13.83;;
215;SDS011;70668;48.81286795;9.14184224;2023-08-24T06:32:39;21.30;;;12.80;;
215;SDS011;70668;48.81286795;9.14184224;2023-08-24T06:35:07;18.33;;;12.60;;
215;SDS011;70668;48.81286795;9.14184224;2023-08-24T06:37:39;21.33;;;12.30;;
215;SDS011;70668;48.81286795;9.14184224;2023-08-24T06:40:08;16.67;;;11.10;;
215;SDS011;70668;48.81286795;9.14184224;2023-08-24T06:42:41;17.43;;;11.20;;
215;SDS011;70668;48.81286795;9.14184224;2023-08-24T06:45:09;18.80;;;11.43;;
215;SDS011;70668;48.81286795;9.14184224;2023-08-24T06:47:38;15.03;;;10.67;;
215;SDS011;70668;48.81286795;9.14184224;2023-08-24T06:50:07;16.93;;;10.90;;
215;SDS011;70668;48.81286795;9.14184224;2023-08-24T06:52:36;19.70;;;13.00;;
215;SDS011;70668;48.81286795;9.14184224;2023-08-24T06:55:05;26.07;;;13.70;;
215;SDS011;70668;48.81286795;9.14184224;2023-08-24T06:57:34;22.00;;;14.80;;
215;SDS011;70668;48.81286795;9.14184224;2023-08-24T07:00:05;24.80;;;15.43;;
215;SDS011;70668;48.81286795;9.14184224;2023-08-24T07:02:35;25.10;;;14.40;;
215;SDS011;70668;48.81286795;9.14184224;2023-08-24T07:05:04;19.30;;;14.13;;
215;SDS011;70668;48.81286795;9.14184224;2023-08-24T07:07:33;25.80;;;15.87;;
215;SDS011;70668;48.81286795;9.14184224;2023-08-24T07:10:02;27.97;;;14.63;;
215;SDS011;70668;48.81286795;9.14184224;2023-08-24T07:12:31;25.23;;;15.43;;
215;SDS011;70668;48.81286795;9.14184224;2023-08-24T07:15:00;22.13;;;15.60;;
215;SDS011;70668;48.81286795;9.14184224;2023-08-24T07:17:31;24.37;;;15.27;;
215;SDS011;70668;48.81286795;9.14184224;2023-08-24T07:19:59;20.93;;;14.47;;
215;SDS011;70668;48.81286795;9.14184224;2023-08-24T07:22:30;23.80;;;14.73;;
215;SDS011;70668;48.81286795;9.14184224;2023-08-24T07:24:59;22.20;;;14.07;;
215;SDS011;70668;48.81286795;9.14184224;2023-08-24T07:27:30;26.23;;;14.57;;
215;SDS011;70668;48.81286795;9.14184224;2023-08-24T07:29:58;20.67;;;13.80;;
215;SDS011;70668;48.81286795;9.14184224;2023-08-24T07:32:31;18.73;;;12.90;;
215;SDS011;70668;48.81286795;9.14184224;2023-08-24T07:34:59;20.43;;;13.00;;
215;SDS011;70668;48.81286795;9.14184224;2023-08-24T07:37:28;25.90;;;13.63;;
215;SDS011;70668;48.81286795;9.14184224;2023-08-24T07:39:57;19.03;;;14.03;;
215;SDS011;70668;48.81286795;9.14184224;2023-08-24T07:42:25;19.57;;;14.17;;
215;SDS011;70668;48.81286795;9.14184224;2023-08-24T07:44:53;23.03;;;14.13;;
215;SDS011;70668;48.81286795;9.14184224;2023-08-24T07:47:22;22.40;;;13.90;;
215;SDS011;70668;48.81286795;9.14184224;2023-08-24T07:49:53;28.30;;;13.80;;
215;SDS011;70668;48.81286795;9.14184224;2023-08-24T07:52:21;22.40;;;13.73;;
215;SDS011;70668;48.81286795;9.14184224;2023-08-24T07:54:52;27.00;;;13.07;;
215;SDS011;70668;48.81286795;9.14184224;2023-08-24T07:57:24;21.87;;;12.33;;
215;SDS011;70668;48.81286795;9.14184224;2023-08-24T07:59:53;21.15;;;11.80;;
215;SDS011;70668;48.81286795;9.14184224;2023-08-24T08:02:21;14.87;;;11.67;;
215;SDS011;70668;48.81286795;9.14184224;2023-08-24T08:04:50;26.30;;;12.80;;
215;SDS011;70668;48.81286795;9.14184224;2023-08-24T08:07:23;18.23;;;10.93;;
215;SDS011;70668;48.81286795;9.14184224;2023-08-24T08:09:52;22.97;;;12.40;;
215;SDS011;70668;48.81286795;9.14184224;2023-08-24T08:12:21;18.93;;;12.53;;
215;SDS011;70668;48.81286795;9.14184224;2023-08-24T08:14:50;17.20;;;11.70;;
215;SDS011;70668;48.81286795;9.14184224;2023-08-24T08:17:18;18.93;;;10.47;;
215;SDS011;70668;48.81286795;9.14184224;2023-08-24T08:19:48;14.37;;;10.50;;
215;SDS011;70668;48.81286795;9.14184224;2023-08-24T08:22:19;15.90;;;10.37;;
215;SDS011;70668;48.81286795;9.14184224;2023-08-24T08:24:47;16.87;;;9.60;;
215;SDS011;70668;48.81286795;9.14184224;2023-08-24T08:27:16;12.63;;;8.80;;
215;SDS011;70668;48.81286795;9.14184224;2023-08-24T08:29:44;15.60;;;9.93;;
215;SDS011;70668;48.81286795;9.14184224;2023-08-24T08:32:12;17.73;;;10.20;;
215;SDS011;70668;48.81286795;9.14184224;2023-08-24T08:34:41;17.13;;;9.60;;
215;SDS011;70668;48.81286795;9.14184224;2023-08-24T08:37:09;16.83;;;10.97;;
215;SDS011;70668;48.81286795;9.14184224;2023-08-24T08:39:40;17.40;;;10.43;;
215;SDS011;70668;48.81286795;9.14184224;2023-08-24T08:42:11;20.87;;;10.57;;
215;SDS011;70668;48.81286795;9.14184224;2023-08-24T08:44:40;21.43;;;11.30;;
215;SDS011;70668;48.81286795;9.14184224;2023-08-24T08:47:09;21.60;;;10.40;;
215;SDS011;70668;48.81286795;9.14184224;2023-08-24T08:49:39;13.93;;;10.17;;
215;SDS011;70668;48.81286795;9.14184224;2023-08-24T08:52:07;15.87;;;10.70;;
215;SDS011;70668;48.81286795;9.14184224;2023-08-24T08:54:36;15.57;;;10.37;;
215;SDS011;70668;48.81286795;9.14184224;2023-08-24T08:57:08;18.20;;;9.87;;
215;SDS011;70668;48.81286795;9.14184224;2023-08-24T08:59:36;14.73;;;10.57;;
215;SDS011;70668;48.81286795;9.14184224;2023-08-24T09:02:05;17.20;;;10.13;;
215;SDS011;70668;48.81286795;9.14184224;2023-08-24T09:04:34;13.90;;;9.70;;
215;SDS011;70668;48.81286795;9.14184224;2023-08-24T09:07:04;21.10;;;9.50;;
215;SDS011;70668;48.81286795;9.14184224;2023-08-24T09:09:35;17.30;;;9.93;;
215;SDS011;70668;48.81286795;9.14184224;2023-08-24T09:12:05;20.20;;;10.40;;
215;SDS011;70668;48.81286795;9.14184224;2023-08-24T09:14:36;15.50;;;9.80;;
215;SDS011;70668;48.81286795;9.14184224;2023-08-24T09:17:05;12.60;;;9.13;;
215;SDS011;70668;48.81286795;9.14184224;2023-08-24T09:19:33;17.43;;;10.17;;
215;SDS011;70668;48.81286795;9.14184224;2023-08-24T09:22:04;13.10;;;9.43;;
215;SDS011;70668;48.81286795;9.14184224;2023-08-24T09:24:32;18.00;;;9.10;;
215;SDS011;70668;48.81286795;9.14184224;2023-08-24T09:27:04;16.47;;;9.70;;
215;SDS011;70668;48.81286795;9.14184224;2023-08-24T09:29:47;14.80;;;9.67;;
215;SDS011;70668;48.81286795;9.14184224;2023-08-24T09:32:21;15.20;;;9.43;;
215;SDS011;70668;48.81286795;9.14184224;2023-08-24T09:34:50;17.47;;;9.20;;
215;SDS011;70668;48.81286795;9.14184224;2023-08-24T09:37:19;17.40;;;10.03;;
215;SDS011;70668;48.81286795;9.14184224;2023-08-24T09:39:47;17.77;;;9.60;;
215;SDS011;70668;48.81286795;9.14184224;2023-08-24T09:42:18;16.97;;;9.80;;
215;SDS011;70668;48.81286795;9.14184224;2023-08-24T09:44:52;17.20;;;10.57;;
215;SDS011;70668;48.81286795;9.14184224;2023-08-24T09:47:21;14.60;;;10.00;;
215;SDS011;70668;48.81286795;9.14184224;2023-08-24T09:49:49;17.83;;;10.67;;
215;SDS011;70668;48.81286795;9.14184224;2023-08-24T09:52:18;14.53;;;10.47;;
215;SDS011;70668;48.81286795;9.14184224;2023-08-24T09:54:47;17.33;;;10.43;;
215;SDS011;70668;48.81286795;9.14184224;2023-08-24T09:57:15;15.83;;;9.50;;
215;SDS011;70668;48.81286795;9.14184224;2023-08-24T09:59:47;16.87;;;10.27;;
215;SDS011;70668;48.81286795;9.14184224;2023-08-24T10:02:18;14.70;;;9.83;;
215;SDS011;70668;48.81286795;9.14184224;2023-08-24T10:04:48;18.10;;;10.40;;
215;SDS011;70668;48.81286795;9.14184224;2023-08-24T10:07:19;16.37;;;9.90;;
215;SDS011;70668;48.81286795;9.14184224;2023-08-24T10:09:51;22.00;;;10.33;;
215;SDS011;70668;48.81286795;9.14184224;2023-08-24T10:12:26;13.50;;;10.10;;
215;SDS011;70668;48.81286795;9.14184224;2023-08-24T10:14:56;16.13;;;10.20;;
215;SDS011;70668;48.81286795;9.14184224;2023-08-24T10:17:28;18.47;;;10.70;;
215;SDS011;70668;48.81286795;9.14184224;2023-08-24T10:19:57;16.30;;;10.77;;
215;SDS011;70668;48.81286795;9.14184224;2023-08-24T10:22:30;18.50;;;9.93;;
215;SDS011;70668;48.81286795;9.14184224;2023-08-24T10:24:59;15.63;;;9.73;;
215;SDS011;70668;48.81286795;9.14184224;2023-08-24T10:27:31;17.70;;;10.70;;
215;SDS011;70668;48.81286795;9.14184224;2023-08-24T10:29:59;17.80;;;10.83;;
215;SDS011;70668;48.81286795;9.14184224;2023-08-24T10:32:28;18.90;;;10.30;;
215;SDS011;70668;48.81286795;9.14184224;2023-08-24T10:34:57;15.63;;;10.50;;
215;SDS011;70668;48.81286795;9.14184224;2023-08-24T10:37:26;16.00;;;10.53;;
215;SDS011;70668;48.81286795;9.14184224;2023-08-24T10:39:56;19.80;;;10.40;;
215;SDS011;70668;48.81286795;9.14184224;2023-08-24T10:42:24;19.50;;;10.90;;
215;SDS011;70668;48.81286795;9.14184224;2023-08-24T10:44:55;11.93;;;9.73;;
215;SDS011;70668;48.81286795;9.14184224;2023-08-24T10:47:24;17.70;;;10.17;;
215;SDS011;70668;48.81286795;9.14184224;2023-08-24T10:49:58;17.10;;;10.10;;
215;SDS011;70668;48.81286795;9.14184224;2023-08-24T10:52:31;17.30;;;10.60;;
215;SDS011;70668;48.81286795;9.14184224;2023-08-24T10:55:01;13.40;;;10.07;;
215;SDS011;70668;48.81286795;9.14184224;2023-08-24T10:57:35;15.93;;;10.80;;
215;SDS011;70668;48.81286795;9.14184224;2023-08-24T11:00:07;15.27;;;10.80;;
215;SDS011;70668;48.81286795;9.14184224;2023-08-24T11:02:43;24.10;;;10.60;;
215;SDS011;70668;48.81286795;9.14184224;2023-08-24T11:05:16;21.67;;;11.20;;
215;SDS011;70668;48.81286795;9.14184224;2023-08-24T11:07:49;20.00;;;10.40;;
215;SDS011;70668;48.81286795;9.14184224;2023-08-24T11:10:19;14.93;;;10.80;;
215;SDS011;70668;48.81286795;9.14184224;2023-08-24T11:15:39;15.00;;;10.63;;
215;SDS011;70668;48.81286795;9.14184224;2023-08-24T11:18:12;16.97;;;11.70;;
215;SDS011;70668;48.81286795;9.14184224;2023-08-24T11:20:38;16.47;;;11.13;;
215;SDS011;70668;48.81286795;9.14184224;2023-08-24T11:23:08;21.77;;;12.10;;
215;SDS011;70668;48.81286795;9.14184224;2023-08-24T11:25:37;17.47;;;11.70;;
215;SDS011;70668;48.81286795;9.14184224;2023-08-24T11:28:06;17.17;;;11.33;;
215;SDS011;70668;48.81286795;9.14184224;2023-08-24T11:30:34;17.00;;;11.67;;
215;SDS011;70668;48.81286795;9.14184224;2023-08-24T11:33:05;16.80;;;11.90;;
215;SDS011;70668;48.81286795;9.14184224;2023-08-24T11:35:37;16.50;;;11.47;;
215;SDS011;70668;48.81286795;9.14184224;2023-08-24T11:38:07;17.83;;;12.00;;
215;SDS011;70668;48.81286795;9.14184224;2023-08-24T11:40:35;15.07;;;11.17;;
215;SDS011;70668;48.81286795;9.14184224;2023-08-24T11:43:04;19.13;;;11.40;;
215;SDS011;70668;48.81286795;9.14184224;2023-08-24T11:45:33;16.60;;;12.07;;
215;SDS011;70668;48.81286795;9.14184224;2023-08-24T11:48:08;22.67;;;12.67;;
215;SDS011;70668;48.81286795;9.14184224;2023-08-24T11:50:37;19.27;;;11.97;;
215;SDS011;70668;48.81286795;9.14184224;2023-08-24T11:53:07;17.90;;;12.20;;
215;SDS011;70668;48.81286795;9.14184224;2023-08-24T11:55:39;22.03;;;12.13;;
215;SDS011;70668;48.81286795;9.14184224;2023-08-24T11:58:13;25.33;;;11.37;;
215;SDS011;70668;48.81286795;9.14184224;2023-08-24T12:00:42;19.93;;;11.80;;
215;SDS011;70668;48.81286795;9.14184224;2023-08-24T12:03:13;21.63;;;11.60;;
215;SDS011;70668;48.81286795;9.14184224;2023-08-24T12:05:42;18.37;;;11.93;;
215;SDS011;70668;48.81286795;9.14184224;2023-08-24T12:08:11;17.20;;;11.67;;
215;SDS011;70668;48.81286795;9.14184224;2023-08-24T12:10:43;17.87;;;11.60;;
215;SDS011;70668;48.81286795;9.14184224;2023-08-24T12:13:11;16.47;;;11.73;;
215;SDS011;70668;48.81286795;9.14184224;2023-08-24T12:15:40;22.80;;;11.47;;
215;SDS011;70668;48.81286795;9.14184224;2023-08-24T12:18:09;19.87;;;11.10;;
215;SDS011;70668;48.81286795;9.14184224;2023-08-24T12:20:41;17.70;;;11.07;;
215;SDS011;70668;48.81286795;9.14184224;2023-08-24T12:23:10;23.03;;;12.00;;
215;SDS011;70668;48.81286795;9.14184224;2023-08-24T12:25:41;16.57;;;11.07;;
215;SDS011;70668;48.81286795;9.14184224;2023-08-24T12:28:11;17.80;;;10.97;;
215;SDS011;70668;48.81286795;9.14184224;2023-08-24T12:30:47;16.23;;;10.37;;
215;SDS011;70668;48.81286795;9.14184224;2023-08-24T12:33:23;21.10;;;10.97;;
215;SDS011;70668;48.81286795;9.14184224;2023-08-24T12:35:55;18.70;;;10.47;;
215;SDS011;70668;48.81286795;9.14184224;2023-08-24T12:38:24;16.03;;;10.13;;
215;SDS011;70668;48.81286795;9.14184224;2023-08-24T12:40:53;17.70;;;10.77;;
215;SDS011;70668;48.81286795;9.14184224;2023-08-24T12:43:22;17.40;;;10.53;;
215;SDS011;70668;48.81286795;9.14184224;2023-08-24T12:45:50;19.70;;;10.53;;
215;SDS011;70668;48.81286795;9.14184224;2023-08-24T12:48:18;18.40;;;10.77;;
215;SDS011;70668;48.81286795;9.14184224;2023-08-24T12:50:47;14.73;;;10.27;;
215;SDS011;70668;48.81286795;9.14184224;2023-08-24T12:53:18;15.83;;;10.33;;
215;SDS011;70668;48.81286795;9.14184224;2023-08-24T12:55:46;18.43;;;10.17;;
215;SDS011;70668;48.81286795;9.14184224;2023-08-24T12:58:14;17.97;;;10.10;;
215;SDS011;70668;48.81286795;9.14184224;2023-08-24T13:00:43;18.40;;;10.43;;
215;SDS011;70668;48.81286795;9.14184224;2023-08-24T13:03:12;17.93;;;10.03;;
215;SDS011;70668;48.81286795;9.14184224;2023-08-24T13:05:40;19.00;;;10.10;;
215;SDS011;70668;48.81286795;9.14184224;2023-08-24T13:08:09;17.90;;;10.37;;